Fisher, AR (72429)

9:57 AM CST on February 28, 2015 (GMT -0600)
Boward and Wofford | Change Station
CLOSE
Current Station
Personal Weather Station
Location: Waldenburg, AR
Elevation: 243 ft
Nearby Weather Stations

Elev 243 ft 35.57 °N, 90.90 °W | Updated 1 minute ago

Snow
Snow
27.6 °F
Feels Like 16 °F
N
14.0
Wind Variable Wind from NE
Gusts 19.0 mph

Today
High -- | Low -- °F
--% Chance of Precip.
Yesterday
High -- | Low -- °F
Precip. -- in
6:35 AM 5:57 PM
Waxing Gibbous, 78% visible
Pressure 30.61 in
Visibility 10.0 miles
Clouds Few 3900 ft
Scattered Clouds 5000 ft
Overcast 6500 ft
Windchill 16 °F
Dew Point 22 °F
Humidity 79%
Rainfall 0.00 in
Snow Depth Not available.
UV 1 out of 12
Pollen 4.50 out of 12
Air Quality Not available.
Flu Activity Not available.
METAR KM19 281456Z AUTO 05013KT 10SM -SN FEW039 SCT050 OVC065 M04/M07 A3060 RMK AO2 53005 60000 T10381066 SNE05B22 P0000 SLP365

More Conditions Fewer Conditions

Pressure 30.61 in
Visibility 10.0 miles
Clouds Few 3900 ft
Scattered Clouds 5000 ft
Overcast 6500 ft
Windchill 16 °F
Dew Point 22 °F
Humidity 79%
Rainfall 0.00 in
Snow Depth Not available.
UV 1 out of 12
Pollen 4.50 out of 12
Air Quality Not available.
Flu Activity Not available.
METAR KM19 281456Z AUTO 05013KT 10SM -SN FEW039 SCT050 OVC065 M04/M07 A3060 RMK AO2 53005 60000 T10381066 SNE05B22 P0000 SLP365

More Conditions Fewer Conditions

10-Day Weather Forecast

Almanac

Astronomy

Feb. 28, 2015 Rise Set
Actual Time
Civil Twilight
Nautical Twilight
Astronomical Twilight
Moon
Length of Visible Light
Length of Day
Tomorrow will be .
, % of the Moon is Illuminated

Today's Extremes

State Highs State Lows

Community

WunderPhotos

Upload Photos

1,801,055 photos uploaded!

WunderBlogs® & News

Nearby

Air Quality

  Air Quality AQ Index Pollutant
Not available.

Snow Depth

Station Depth Elevation

Earthquake Activity

City Distance Mag. Time & Date
Minimum magnitude displayed is 2.5.

Coastal Water Temperatures

Place Temperature

Nearby Weather Stations